Lantana, FL

6:55 AM EDT on May 25, 2017 (GMT -0400)
Lantana | | Change Station

Elev 16 ft 26.58 °N, 80.06 °W | Updated 47 seconds ago

Thunderstorm
Thunderstorm
71.2 °F
Feels Like 71.2 °F
N
0.0
Wind Variable Wind from WSW
Gusts 10.0 mph

Today
High -- | Low -- °F
--% Chance of Precip.
Yesterday
High -- | Low -- °F
Precip. -- in
Pressure 29.85 in
Visibility 5.0 miles
Clouds Scattered Clouds 600 ft
Scattered Clouds 2800 ft
Mostly Cloudy 6000 ft
Dew Point 69 °F
Humidity 94%
Rainfall 2.48 in
Snow Depth Not available.
6:28 AM 8:05 PM
Waning Crescent, 0% visible
METAR KPBI 251053Z 21008KT 5SM -TSRA SCT006 SCT028CB BKN060 23/21 A2985 RMK AO2 LTG DSNT ALQDS RAB05 TSB02E17B19 SLP106 CONS LTGICCCCG OHD-E-SW TS OHD-E-SW MOV NE T02330206 PNO $
Pressure 29.85 in
Visibility 5.0 miles
Clouds Scattered Clouds 600 ft
Scattered Clouds 2800 ft
Mostly Cloudy 6000 ft
Dew Point 69 °F
Humidity 94%
Rainfall 2.48 in
Snow Depth Not available.
6:28 AM 8:05 PM
Waning Crescent, 0% visible
METAR KPBI 251053Z 21008KT 5SM -TSRA SCT006 SCT028CB BKN060 23/21 A2985 RMK AO2 LTG DSNT ALQDS RAB05 TSB02E17B19 SLP106 CONS LTGICCCCG OHD-E-SW TS OHD-E-SW MOV NE T02330206 PNO $

Get Severe Weather Alerts

Thanks for signing up!

Be on the lookout for a verification email in your inbox.

You'll start receiving the daily forecast at 6 AM.

×

10-Day Weather Forecast

Almanac

Astronomy

May. 25, 2017 Rise Set
Actual Time
Civil Twilight
Nautical Twilight
Astronomical Twilight
Moon
Length of Visible Light
Length of Day
Tomorrow will be .
, % of the Moon is Illuminated

Today's Extremes

State Highs State Lows

Community

WunderPhotos

Category 6

Welcome to Category 6. This is the collective home for Weather Underground's featured writeups by Dr. Jeff Masters (right), Bob Henson (left), Chris Burt, and other regular contributors.

Nearby

Air Quality

  Air Quality AQ Index Pollutant
Not available.

Snow Depth

Station Depth Elevation

Earthquake Activity

City Distance Mag. Time & Date
Minimum magnitude displayed is 2.5.

Coastal Water Temperatures

Place Temperature

Stations

Nearby Weather Stations

Station Location Temp. Windchill Dew Point Humidity Wind Precip. Elev Updated Type
                   

Watches & Warnings

There are currently no watches in effect.